Latest Weather Observations for Liawenee

IDT60801

Issued at 5:31 am EST Monday 31 August 2015 (issued every 30 minutes, with the page automatically refreshed every 10 minutes)

About weather observations | Map of weather stations | Latest weather observations for TAS | Other Formats
Station Details ID: 096033 Name: LIAWENEE Lat: -41.90 Lon: 146.67 Height: 1057.0 m
Data from the previous 72 hours. | See also: Recent months at Liawenee
Date/Time
EST
Temp
°C
App
Temp
°C
Dew
Point
Rel
Hum
%
Delta-T
°C
Wind Press
QNH
hPa
Press
MSL
hPa
Rain
since 9 am
mm
Dir
 
Spd
km/h
Gust
km/h
Spd
kts
Gust
kts
31/05:30am -1.7 -5.6 -1.8 99 0.0 SSW 9 11 5 6 1018.7 1020.8 0.0
31/05:00am -1.8 -5.8 -1.9 99 0.0 SSW 9 13 5 7 1019.0 1021.0 0.0
31/04:30am -2.0 -5.6 -2.3 98 0.0 SSW 7 9 4 5 1019.0 1021.0 0.0
31/04:00am -1.7 -5.7 -2.0 98 0.0 SSW 9 13 5 7 1019.1 1021.2 0.0
31/03:30am -1.7 -5.7 -2.1 97 0.1 SSW 9 17 5 9 1019.1 1021.2 0.0
31/03:00am -1.5 -5.5 -2.2 95 0.2 SSW 9 15 5 8 1019.3 1021.4 0.0
31/02:30am -1.3 -4.9 -1.9 96 0.2 SSW 7 9 4 5 1019.8 1022.0 0.0
31/02:00am -1.2 -5.2 -2.0 94 0.2 S 9 11 5 6 1020.2 1022.3 0.0
31/01:30am -1.0 -4.9 -1.8 94 0.2 SSE 9 17 5 9 1020.4 1022.5 0.0
31/01:00am -1.0 -5.0 -2.0 93 0.3 SSE 9 13 5 7 1020.5 1022.6 0.0
31/12:30am -1.0 -4.6 -2.0 93 0.3 SSE 7 11 4 6 1020.7 1022.9 0.0
31/12:00am -0.8 -4.7 -1.6 94 0.3 SSE 9 15 5 8 1020.8 1023.0 0.0
 
Date/Time
EST
Temp
°C
App
Temp
°C
Dew
Point
Rel
Hum
%
Delta-T
°C
Wind Press
QNH
hPa
Press
MSL
hPa
Rain
since 9 am
mm
Dir
 
Spd
km/h
Gust
km/h
Spd
kts
Gust
kts
30/11:30pm -0.7 -5.0 -1.5 94 0.3 S 11 15 6 8 1021.2 1023.3 0.0
30/11:00pm -0.5 -3.8 -1.5 93 0.3 SE 6 7 3 4 1021.3 1023.4 0.0
30/10:30pm -0.5 -4.8 -1.6 92 0.4 S 11 17 6 9 1021.4 1023.6 0.0
30/10:00pm -0.5 -4.4 -1.6 92 0.4 SSE 9 19 5 10 1021.4 1023.6 0.0
30/09:30pm -0.7 -5.0 -1.5 94 0.3 S 11 19 6 10 1021.6 1023.8 0.0
30/09:00pm -0.9 -5.2 -1.7 94 0.3 S 11 15 6 8 1021.5 1023.7 0.0
30/08:30pm -0.6 -4.5 -1.6 93 0.3 SSW 9 13 5 7 1021.5 1023.7 0.0
30/08:00pm -1.0 -4.6 -2.0 93 0.3 SW 7 9 4 5 1021.3 1023.4 0.0
30/07:30pm -0.3 -4.2 -1.4 92 0.4 S 9 11 5 6 1021.3 1023.4 0.0
30/07:00pm -0.1 -4.3 -1.2 92 0.4 S 11 15 6 8 1021.3 1023.4 0.0
30/06:30pm 0.0 -4.3 -1.3 91 0.5 S 11 13 6 7 1021.2 1023.3 0.0
30/06:00pm 0.7 -4.3 -0.9 89 0.6 S 15 22 8 12 1021.2 1023.3 0.0
30/05:30pm 1.4 -3.2 -1.2 83 1.0 S 13 19 7 10 1020.9 1023.1 0.0
30/05:00pm 2.7 -2.6 -0.7 78 1.3 S 17 20 9 11 1020.7 1022.9 0.0
30/04:30pm 3.4 -1.9 -0.4 76 1.5 SSE 17 20 9 11 1020.7 1022.9 0.0
30/04:00pm 4.1 -1.1 -0.1 74 1.7 SSE 17 22 9 12 1020.7 1022.9 0.0
30/03:30pm 4.6 -0.2 0.2 73 1.8 SSE 15 20 8 11 1020.8 1023.0 0.0
30/03:00pm 4.5 -0.3 -0.1 72 1.9 SSE 15 20 8 11 1020.8 1023.0 0.0
30/02:30pm 4.2 -0.7 -0.6 71 1.9 SSE 15 20 8 11 1020.8 1023.0 0.0
30/02:00pm 4.6 0.9 0.2 73 1.8 S 9 17 5 9 1020.7 1022.9 0.0
30/01:30pm 3.6 -1.0 -1.2 71 1.9 S 13 17 7 9 1020.8 1023.0 0.0
30/01:00pm 3.9 -0.6 -0.3 74 1.7 S 13 17 7 9 1020.9 1023.1 0.0
30/12:30pm 3.4 -1.1 -0.1 78 1.4 S 13 20 7 11 1021.2 1023.3 0.0
30/12:00pm 3.0 -1.9 -0.3 79 1.3 S 15 20 8 11 1021.8 1024.0 0.0
30/11:30am 1.5 -3.5 -1.2 82 1.0 S 15 19 8 10 1022.3 1024.5 0.0
30/11:00am 1.4 -3.2 -1.2 83 1.0 SSW 13 19 7 10 1022.4 1024.6 0.0
30/10:30am 0.4 -5.0 -1.2 89 0.6 S 17 24 9 13 1022.5 1024.7 0.0
30/10:00am 0.5 -4.1 -0.9 90 0.6 SSW 13 17 7 9 1022.7 1024.9 0.0
30/09:30am 0.1 -4.5 -1.0 92 0.4 S 13 17 7 9 1022.6 1024.8 0.0
30/09:00am -0.2 -5.2 -1.2 93 0.4 S 15 22 8 12 1022.5 1024.7 2.0
30/08:30am -0.8 -3.0 -1.4 96 0.2 CALM 0 0 0 0 1022.5 1024.7 2.0
30/08:00am -1.1 -6.1 -1.4 98 0.1 S 15 22 8 12 1022.6 1024.8 2.0
30/07:30am -1.4 -6.8 -1.7 98 0.0 S 17 20 9 11 1022.5 1024.7 2.0
30/07:00am -1.7 -7.5 -1.8 99 0.0 S 19 24 10 13 1022.3 1024.5 2.0
30/06:30am -1.9 -7.0 -2.2 98 0.0 SSW 15 20 8 11 1021.8 1024.0 2.0
30/06:00am -1.9 -7.4 -2.3 97 0.1 S 17 22 9 12 1021.7 1023.9 2.0
30/05:30am -2.0 -7.9 -2.4 97 0.0 SSW 19 26 10 14 1021.5 1023.7 2.0
30/05:00am -2.0 -7.6 -2.7 95 0.2 SSW 17 28 9 15 1021.3 1023.4 2.0
30/04:30am -2.0 -7.6 -3.0 93 0.3 SSW 17 28 9 15 1021.3 1023.4 2.0
30/04:00am -2.0 -8.0 -2.8 94 0.2 SSW 19 28 10 15 1021.2 1023.3 2.0
30/03:30am -2.3 -8.3 -3.1 94 0.2 SW 19 26 10 14 1021.2 1023.3 2.0
30/03:00am -2.2 -7.8 -2.9 95 0.1 SSW 17 22 9 12 1021.5 1023.7 2.0
30/02:30am -2.2 -7.8 -3.0 94 0.2 SSW 17 22 9 12 1021.8 1024.0 2.0
30/02:00am -2.2 -7.8 -3.0 94 0.2 SSW 17 22 9 12 1021.9 1024.1 2.0
30/01:30am -2.2 -7.8 -3.3 92 0.3 SSW 17 24 9 13 1022.1 1024.2 2.0
30/01:00am -1.8 -7.4 -2.8 93 0.3 SW 17 26 9 14 1022.3 1024.5 2.0
30/12:30am -1.7 -7.8 -2.7 93 0.3 SSW 20 28 11 15 1022.5 1024.7 2.0
30/12:00am -1.4 -7.9 -2.2 94 0.2 SSW 22 32 12 17 1022.6 1024.8 2.0
 
Date/Time
EST
Temp
°C
App
Temp
°C
Dew
Point
Rel
Hum
%
Delta-T
°C
Wind Press
QNH
hPa
Press
MSL
hPa
Rain
since 9 am
mm
Dir
 
Spd
km/h
Gust
km/h
Spd
kts
Gust
kts
29/11:30pm -1.3 -7.4 -2.1 94 0.2 S 20 30 11 16 1022.6 1024.8 2.0
29/11:00pm -1.4 -9.4 -2.5 92 0.3 S 30 43 16 23 1022.5 1024.7 2.0
29/10:30pm -0.9 -7.7 -1.5 96 0.2 S 24 33 13 18 1022.7 1024.9 2.0
29/10:00pm -0.7 -6.4 -1.1 97 0.1 S 19 26 10 14 1022.6 1024.8 2.0
29/09:30pm -0.4 -6.7 -0.7 98 0.1 SSE 22 33 12 18 1022.4 1024.6 2.0
29/09:00pm -0.2 -6.1 -0.5 98 0.1 S 20 32 11 17 1022.3 1024.5 1.8
29/08:30pm -0.2 -6.9 -0.8 96 0.2 S 24 33 13 18 1021.9 1024.1 1.8
29/08:00pm -0.1 -6.4 -0.7 96 0.2 S 22 37 12 20 1021.7 1023.9 1.8
29/07:30pm -0.1 -7.5 -0.5 97 0.1 S 28 44 15 24 1021.4 1023.6 1.8
29/07:00pm 0.1 -5.5 -0.2 98 0.1 S 19 30 10 16 1021.3 1023.4 1.8
29/06:30pm 0.3 -6.3 -0.1 97 0.2 S 24 35 13 19 1021.1 1023.2 1.8
29/06:00pm 0.6 -6.0 -0.1 95 0.3 S 24 35 13 19 1020.6 1022.8 1.8
29/05:30pm 0.8 -5.3 0.1 95 0.3 S 22 33 12 18 1020.4 1022.5 1.8
29/05:00pm 1.0 -5.5 0.0 93 0.4 S 24 35 13 19 1020.0 1022.1 1.8
29/04:30pm 1.4 -5.8 0.4 93 0.4 S 28 39 15 21 1019.6 1021.7 1.8
29/04:00pm 1.4 -6.8 0.2 92 0.5 S 33 44 18 24 1019.5 1021.6 1.8
29/03:30pm 1.5 -6.1 0.8 95 0.3 SSW 30 35 16 19 1019.6 1021.7 1.8
29/03:00pm 1.3 -5.5 0.7 96 0.2 SW 26 33 14 18 1019.4 1021.5 1.8
29/02:30pm 1.7 -5.5 0.7 93 0.4 SSW 28 37 15 20 1019.1 1021.2 1.6
29/02:00pm 1.9 -6.0 0.9 93 0.4 SSW 32 43 17 23 1018.8 1020.9 1.6
29/01:30pm 1.9 -5.6 0.9 93 0.4 SSW 30 39 16 21 1019.0 1021.0 1.6
29/01:00pm 2.2 -7.1 0.6 89 0.6 S 39 52 21 28 1019.2 1021.3 1.6
29/12:30pm 2.0 -7.3 0.8 92 0.5 S 39 52 21 28 1019.3 1021.4 1.6
29/12:00pm 1.3 -7.6 0.6 95 0.3 S 37 54 20 29 1019.3 1021.4 1.4
29/11:42am 1.3 -7.2 0.6 95 0.3 S 35 56 19 30 1019.3 1021.4 1.4
29/11:30am 1.4 -8.3 0.8 96 0.2 S 41 54 22 29 1019.4 1021.5 1.4
29/11:15am 1.3 -7.2 0.7 96 0.2 S 35 57 19 31 1019.4 1021.5 1.4
29/11:00am 1.2 -8.8 0.8 97 0.2 S 43 57 23 31 1019.3 1021.4 1.4
29/10:43am 1.0 -7.5 0.7 98 0.1 SSW 35 54 19 29 1019.2 1021.3 1.4
29/10:30am 0.8 -7.3 0.7 99 0.0 SSW 33 44 18 24 1018.8 1020.9 1.4
29/10:00am 0.7 -7.3 0.4 98 0.1 SSW 32 41 17 22 1018.7 1020.8 1.2
29/09:30am 0.5 -7.1 0.4 99 0.0 SSW 30 41 16 22 1018.7 1020.8 1.0
29/09:02am 0.4 -6.9 0.3 99 0.0 SSW 28 46 15 25 1018.6 1020.7 0.0
29/09:00am 0.3 -6.6 0.2 99 0.0 SSW 26 35 14 19 1018.7 1020.8 9.2
29/08:30am 0.0 -6.6 -0.1 99 0.0 SW 24 30 13 16 1018.5 1020.6 7.8
29/08:00am -0.3 -6.9 -0.4 99 0.0 SW 24 30 13 16 1018.4 1020.5 6.2
29/07:30am -0.5 -7.9 -0.5 100 0.0 SSW 28 35 15 19 1017.8 1019.9 5.6
29/07:00am -0.7 -8.9 -0.7 100 0.0 SSW 32 41 17 22 1017.6 1019.7 5.0
29/06:30am -0.9 -9.1 -0.9 100 0.0 SW 32 37 17 20 1017.2 1019.2 4.4
29/06:00am -0.9 -8.7 -0.9 100 0.0 SSW 30 39 16 21 1016.8 1018.9 4.0
29/05:30am -0.9 -9.1 -0.9 100 0.0 SSW 32 43 17 23 1016.4 1018.4 3.4
29/05:00am -0.8 -9.2 -0.9 99 0.0 SSW 33 46 18 25 1016.2 1018.2 3.2
29/04:30am -1.0 -9.8 -1.1 99 0.0 SSW 35 46 19 25 1015.6 1017.6 2.8
29/04:00am -1.1 -9.5 -1.2 99 0.0 SSW 33 46 18 25 1015.2 1017.2 2.6
29/03:30am -1.2 -9.1 -1.3 99 0.0 SW 30 39 16 21 1015.0 1017.0 2.6
29/03:00am -1.3 -9.6 -1.4 99 0.0 SW 32 41 17 22 1015.3 1017.3 2.6
29/02:30am -1.4 -10.6 -1.5 99 0.0 SW 37 52 20 28 1015.2 1017.2 2.4
29/02:00am -1.7 -10.6 -1.8 99 0.0 SW 35 43 19 23 1015.3 1017.3 2.0
29/01:30am -2.1 -10.5 -2.2 99 -0.1 SW 32 46 17 25 1015.5 1017.5 1.8
29/01:00am -2.3 -9.9 -2.4 99 -0.1 SW 28 41 15 22 1016.1 1018.1 1.6
29/12:30am -2.5 -9.4 -2.8 98 0.0 SW 24 33 13 18 1016.6 1018.7 1.4
29/12:00am -2.6 -9.9 -3.0 97 0.0 SW 26 33 14 18 1017.7 1019.8 1.2
 
Date/Time
EST
Temp
°C
App
Temp
°C
Dew
Point
Rel
Hum
%
Delta-T
°C
Wind Press
QNH
hPa
Press
MSL
hPa
Rain
since 9 am
mm
Dir
 
Spd
km/h
Gust
km/h
Spd
kts
Gust
kts
28/11:30pm -2.6 -11.1 -3.4 94 0.2 SW 32 43 17 23 1018.1 1020.1 1.2
28/11:00pm -2.7 -10.8 -3.4 95 0.1 SW 30 43 16 23 1018.6 1020.7 1.2
28/10:30pm -3.0 -10.8 -3.5 96 0.0 SW 28 39 15 21 1019.3 1021.4 1.2
28/10:00pm -2.7 -11.3 -4.4 88 0.5 SW 32 43 17 23 1019.4 1021.5 1.2
28/09:30pm -2.8 -9.9 -4.8 86 0.5 SW 24 32 13 17 1020.1 1022.2 1.2
28/09:04pm -2.6 -10.5 -4.9 84 0.6 SW 28 50 15 27 1020.5 1022.6 1.2
28/09:00pm -2.7 -10.2 -4.9 85 0.6 SW 26 37 14 20 1020.5 1022.6 1.2
28/08:30pm -3.0 -9.8 -4.9 87 0.5 SW 22 30 12 16 1020.5 1022.6 1.2
28/08:00pm -3.2 -11.2 -5.5 84 0.6 SW 28 44 15 24 1020.6 1022.8 1.2
28/07:50pm -3.2 -11.2 -5.7 83 0.7 SW 28 46 15 25 1020.4 1022.5 1.2
28/07:30pm -3.3 -10.9 -5.8 83 0.7 SW 26 33 14 18 1020.6 1022.8 1.2
28/07:00pm -3.1 -11.1 -5.9 81 0.8 SW 28 39 15 21 1020.6 1022.8 1.2
28/06:30pm -2.8 -10.4 -5.6 81 0.8 SW 26 35 14 19 1020.6 1022.8 1.2
28/06:00pm -2.4 -10.3 -5.2 81 0.8 SW 28 37 15 20 1020.7 1022.9 1.2
28/05:30pm -1.8 -10.7 -5.1 78 1.0 SW 33 41 18 22 1020.7 1022.9 1.2
28/05:00pm -0.7 -8.5 -3.4 82 0.9 SSW 28 41 15 22 1020.7 1022.9 1.2
28/04:30pm -1.8 -11.6 -3.1 91 0.4 SW 39 54 21 29 1020.7 1022.9 1.2
28/04:21pm -0.9 -9.0 -3.1 85 0.7 SW 30 54 16 29 1020.6 1022.8 1.2
28/04:00pm 0.0 -7.9 -1.9 87 0.7 SW 30 39 16 21 1020.5 1022.6 1.2
28/03:30pm -1.0 -8.6 -1.8 94 0.2 SSW 28 37 15 20 1020.5 1022.6 1.0
28/03:00pm 0.1 -5.9 -1.2 91 0.5 SSW 20 26 11 14 1020.5 1022.6 1.0
28/02:30pm -0.9 -8.5 -2.3 90 0.5 SSW 28 39 15 21 1020.8 1023.0 0.8
28/02:00pm 0.9 -5.0 -0.5 90 0.5 SW 20 26 11 14 1020.8 1023.0 0.6
28/01:30pm -1.1 -8.3 -2.2 92 0.3 S 26 35 14 19 1021.1 1023.2 0.2
28/01:00pm 0.9 -6.0 -2.7 77 1.4 S 24 35 13 19 1021.4 1023.6 0.0
28/12:30pm 1.1 -5.8 -2.5 77 1.4 S 24 39 13 21 1022.1 1024.2 0.0
28/12:00pm -0.6 -8.4 -3.6 80 1.0 S 28 37 15 20 1022.5 1024.7 0.0
28/11:30am 0.1 -7.7 -3.4 77 1.3 S 28 41 15 22 1022.7 1024.9 0.0
28/11:00am -0.3 -8.1 -3.5 79 1.1 S 28 37 15 20 1023.1 1025.3 0.0
28/10:30am -0.1 -8.6 -3.1 80 1.1 SSE 32 41 17 22 1022.9 1025.1 0.0
28/10:00am -0.3 -8.0 -3.2 81 1.0 S 28 41 15 22 1022.6 1024.8 0.0
28/09:30am -1.5 -9.7 -3.7 85 0.7 S 30 39 16 21 1022.7 1024.9 0.0
28/09:00am -1.9 -10.1 -3.9 86 0.6 S 30 52 16 28 1022.7 1024.9 1.2
28/08:55am -1.5 -10.0 -3.7 85 0.7 S 32 52 17 28 1022.6 1024.8 1.2
28/08:30am -1.4 -8.7 -3.0 89 0.5 SSW 26 35 14 19 1022.3 1024.5 1.2
28/08:00am -1.9 -10.0 -3.2 91 0.4 SW 30 41 16 22 1022.2 1024.3 1.2
28/07:30am -1.8 -8.7 -2.4 96 0.1 SW 24 43 13 23 1021.8 1024.0 1.2
28/07:00am -1.7 -8.5 -2.1 97 0.1 SW 24 32 13 17 1021.7 1023.9 1.2
28/06:30am -1.7 -7.8 -2.3 96 0.1 SW 20 30 11 16 1021.4 1023.6 1.2
28/06:00am -1.0 -7.0 -1.3 98 0.1 SW 20 32 11 17 1021.1 1023.2 1.2

Other Formats:

Comma delimited format used in spreadsheet applications
http://www.bom.gov.au/fwo/IDT60801/IDT60801.95959.axf

JavaScript Object Notation format (JSON) in row-major order
http://www.bom.gov.au/fwo/IDT60801/IDT60801.95959.json